sensor_id;sensor_type;location;lat;lon;timestamp;temperature;humidity
21298;DHT22;10808;48.010;11.326;2023-04-16T00:00:33;5.80;99.90
21298;DHT22;10808;48.010;11.326;2023-04-16T00:02:59;5.80;99.90
21298;DHT22;10808;48.010;11.326;2023-04-16T00:05:25;5.90;99.90
21298;DHT22;10808;48.010;11.326;2023-04-16T00:07:50;5.80;99.90
21298;DHT22;10808;48.010;11.326;2023-04-16T00:10:17;5.80;99.90
21298;DHT22;10808;48.010;11.326;2023-04-16T00:12:43;5.80;99.90
21298;DHT22;10808;48.010;11.326;2023-04-16T00:15:09;5.90;99.90
21298;DHT22;10808;48.010;11.326;2023-04-16T00:17:35;5.90;99.90
21298;DHT22;10808;48.010;11.326;2023-04-16T00:20:01;6.00;99.90
21298;DHT22;10808;48.010;11.326;2023-04-16T00:22:28;5.90;99.90
21298;DHT22;10808;48.010;11.326;2023-04-16T00:24:54;6.00;99.90
21298;DHT22;10808;48.010;11.326;2023-04-16T00:27:20;6.00;99.90
21298;DHT22;10808;48.010;11.326;2023-04-16T00:29:46;5.90;99.90
21298;DHT22;10808;48.010;11.326;2023-04-16T00:32:12;5.90;99.90
21298;DHT22;10808;48.010;11.326;2023-04-16T00:34:39;5.90;99.90
21298;DHT22;10808;48.010;11.326;2023-04-16T00:37:05;5.90;99.90
21298;DHT22;10808;48.010;11.326;2023-04-16T00:39:31;5.90;99.90
21298;DHT22;10808;48.010;11.326;2023-04-16T00:41:57;5.90;99.90
21298;DHT22;10808;48.010;11.326;2023-04-16T00:44:23;5.90;99.90
21298;DHT22;10808;48.010;11.326;2023-04-16T00:46:49;5.90;99.90
21298;DHT22;10808;48.010;11.326;2023-04-16T00:49:16;5.90;99.90
21298;DHT22;10808;48.010;11.326;2023-04-16T00:51:42;5.90;99.90
21298;DHT22;10808;48.010;11.326;2023-04-16T00:54:08;5.90;99.90
21298;DHT22;10808;48.010;11.326;2023-04-16T00:56:34;5.90;99.90
21298;DHT22;10808;48.010;11.326;2023-04-16T00:59:01;5.90;99.90
21298;DHT22;10808;48.010;11.326;2023-04-16T01:01:27;6.00;99.90
21298;DHT22;10808;48.010;11.326;2023-04-16T01:03:53;5.90;99.90
21298;DHT22;10808;48.010;11.326;2023-04-16T01:06:19;6.00;99.90
21298;DHT22;10808;48.010;11.326;2023-04-16T01:08:46;5.90;99.90
21298;DHT22;10808;48.010;11.326;2023-04-16T01:11:14;6.00;99.90
21298;DHT22;10808;48.010;11.326;2023-04-16T01:13:40;6.00;99.90
21298;DHT22;10808;48.010;11.326;2023-04-16T01:16:09;5.90;99.90
21298;DHT22;10808;48.010;11.326;2023-04-16T01:18:36;5.90;99.90
21298;DHT22;10808;48.010;11.326;2023-04-16T01:21:03;5.90;99.90
21298;DHT22;10808;48.010;11.326;2023-04-16T01:23:29;5.90;99.90
21298;DHT22;10808;48.010;11.326;2023-04-16T01:25:56;5.90;99.90
21298;DHT22;10808;48.010;11.326;2023-04-16T01:28:22;5.90;99.90
21298;DHT22;10808;48.010;11.326;2023-04-16T01:30:48;5.90;99.90
21298;DHT22;10808;48.010;11.326;2023-04-16T01:33:14;5.90;99.90
21298;DHT22;10808;48.010;11.326;2023-04-16T01:35:42;5.90;99.90
21298;DHT22;10808;48.010;11.326;2023-04-16T01:38:09;6.00;99.90
21298;DHT22;10808;48.010;11.326;2023-04-16T01:40:36;6.00;99.90
21298;DHT22;10808;48.010;11.326;2023-04-16T01:43:02;6.00;99.90
21298;DHT22;10808;48.010;11.326;2023-04-16T01:45:30;6.00;99.90
21298;DHT22;10808;48.010;11.326;2023-04-16T01:47:56;6.00;99.90
21298;DHT22;10808;48.010;11.326;2023-04-16T01:50:22;6.00;99.90
21298;DHT22;10808;48.010;11.326;2023-04-16T01:52:48;6.00;99.90
21298;DHT22;10808;48.010;11.326;2023-04-16T01:55:14;6.00;99.90
21298;DHT22;10808;48.010;11.326;2023-04-16T01:57:40;6.00;99.90
21298;DHT22;10808;48.010;11.326;2023-04-16T02:00:07;6.00;99.90
21298;DHT22;10808;48.010;11.326;2023-04-16T02:02:34;6.00;99.90
21298;DHT22;10808;48.010;11.326;2023-04-16T02:05:00;5.90;99.90
21298;DHT22;10808;48.010;11.326;2023-04-16T02:07:26;5.90;99.90
21298;DHT22;10808;48.010;11.326;2023-04-16T02:09:52;6.00;99.90
21298;DHT22;10808;48.010;11.326;2023-04-16T02:12:18;5.90;99.90
21298;DHT22;10808;48.010;11.326;2023-04-16T02:14:45;6.00;99.90
21298;DHT22;10808;48.010;11.326;2023-04-16T02:17:11;6.00;99.90
21298;DHT22;10808;48.010;11.326;2023-04-16T02:19:37;6.00;99.90
21298;DHT22;10808;48.010;11.326;2023-04-16T02:22:03;6.00;99.90
21298;DHT22;10808;48.010;11.326;2023-04-16T02:24:29;6.00;99.90
21298;DHT22;10808;48.010;11.326;2023-04-16T02:26:55;6.00;99.90
21298;DHT22;10808;48.010;11.326;2023-04-16T02:29:21;6.00;99.90
21298;DHT22;10808;48.010;11.326;2023-04-16T02:31:48;6.10;99.90
21298;DHT22;10808;48.010;11.326;2023-04-16T02:34:14;6.00;99.90
21298;DHT22;10808;48.010;11.326;2023-04-16T02:36:40;6.00;99.90
21298;DHT22;10808;48.010;11.326;2023-04-16T02:39:06;6.00;99.90
21298;DHT22;10808;48.010;11.326;2023-04-16T02:41:32;6.00;99.90
21298;DHT22;10808;48.010;11.326;2023-04-16T02:43:58;6.00;99.90
21298;DHT22;10808;48.010;11.326;2023-04-16T02:46:25;5.90;99.90
21298;DHT22;10808;48.010;11.326;2023-04-16T02:48:51;5.90;99.90
21298;DHT22;10808;48.010;11.326;2023-04-16T02:51:17;5.90;99.90
21298;DHT22;10808;48.010;11.326;2023-04-16T02:53:43;6.00;99.90
21298;DHT22;10808;48.010;11.326;2023-04-16T02:56:11;6.00;99.90
21298;DHT22;10808;48.010;11.326;2023-04-16T02:58:37;6.00;99.90
21298;DHT22;10808;48.010;11.326;2023-04-16T03:01:03;6.00;99.90
21298;DHT22;10808;48.010;11.326;2023-04-16T03:03:29;6.00;99.90
21298;DHT22;10808;48.010;11.326;2023-04-16T03:05:56;6.00;99.90
21298;DHT22;10808;48.010;11.326;2023-04-16T03:08:22;6.00;99.90
21298;DHT22;10808;48.010;11.326;2023-04-16T03:10:48;6.00;99.90
21298;DHT22;10808;48.010;11.326;2023-04-16T03:13:14;6.00;99.90
21298;DHT22;10808;48.010;11.326;2023-04-16T03:15:40;6.00;99.90
21298;DHT22;10808;48.010;11.326;2023-04-16T03:18:06;6.00;99.90
21298;DHT22;10808;48.010;11.326;2023-04-16T03:20:32;6.00;99.90
21298;DHT22;10808;48.010;11.326;2023-04-16T03:22:58;6.00;99.90
21298;DHT22;10808;48.010;11.326;2023-04-16T03:25:24;6.00;99.90
21298;DHT22;10808;48.010;11.326;2023-04-16T03:27:50;6.10;99.90
21298;DHT22;10808;48.010;11.326;2023-04-16T03:30:16;6.00;99.90
21298;DHT22;10808;48.010;11.326;2023-04-16T03:32:42;6.00;99.90
21298;DHT22;10808;48.010;11.326;2023-04-16T03:35:08;6.00;99.90
21298;DHT22;10808;48.010;11.326;2023-04-16T03:37:35;6.00;99.90
21298;DHT22;10808;48.010;11.326;2023-04-16T03:40:01;6.00;99.90
21298;DHT22;10808;48.010;11.326;2023-04-16T03:42:28;6.00;99.90
21298;DHT22;10808;48.010;11.326;2023-04-16T03:44:54;6.00;99.90
21298;DHT22;10808;48.010;11.326;2023-04-16T03:47:20;6.00;99.90
21298;DHT22;10808;48.010;11.326;2023-04-16T03:49:46;6.00;99.90
21298;DHT22;10808;48.010;11.326;2023-04-16T03:52:12;6.00;99.90
21298;DHT22;10808;48.010;11.326;2023-04-16T03:54:38;6.10;99.90
21298;DHT22;10808;48.010;11.326;2023-04-16T03:57:04;6.00;99.90
21298;DHT22;10808;48.010;11.326;2023-04-16T03:59:30;6.10;99.90
21298;DHT22;10808;48.010;11.326;2023-04-16T04:01:56;6.00;99.90
21298;DHT22;10808;48.010;11.326;2023-04-16T04:04:22;6.00;99.90
21298;DHT22;10808;48.010;11.326;2023-04-16T04:06:48;6.10;99.90
21298;DHT22;10808;48.010;11.326;2023-04-16T04:09:14;6.00;99.90
21298;DHT22;10808;48.010;11.326;2023-04-16T04:11:41;6.00;99.90
21298;DHT22;10808;48.010;11.326;2023-04-16T04:14:08;6.00;99.90
21298;DHT22;10808;48.010;11.326;2023-04-16T04:16:34;6.00;99.90
21298;DHT22;10808;48.010;11.326;2023-04-16T04:19:00;6.00;99.90
21298;DHT22;10808;48.010;11.326;2023-04-16T04:21:28;6.00;99.90
21298;DHT22;10808;48.010;11.326;2023-04-16T04:23:56;6.00;99.90
21298;DHT22;10808;48.010;11.326;2023-04-16T04:26:22;6.00;99.90
21298;DHT22;10808;48.010;11.326;2023-04-16T04:28:48;5.90;99.90
21298;DHT22;10808;48.010;11.326;2023-04-16T04:31:14;5.90;99.90
21298;DHT22;10808;48.010;11.326;2023-04-16T04:33:40;5.90;99.90
21298;DHT22;10808;48.010;11.326;2023-04-16T04:36:06;5.90;99.90
21298;DHT22;10808;48.010;11.326;2023-04-16T04:38:32;5.90;99.90
21298;DHT22;10808;48.010;11.326;2023-04-16T04:40:58;5.90;99.90
21298;DHT22;10808;48.010;11.326;2023-04-16T04:43:24;5.80;99.90
21298;DHT22;10808;48.010;11.326;2023-04-16T04:45:50;5.80;99.90
21298;DHT22;10808;48.010;11.326;2023-04-16T04:48:16;5.80;99.90
21298;DHT22;10808;48.010;11.326;2023-04-16T04:50:44;5.80;99.90
21298;DHT22;10808;48.010;11.326;2023-04-16T04:53:10;5.80;99.90
21298;DHT22;10808;48.010;11.326;2023-04-16T04:55:36;5.80;99.90
21298;DHT22;10808;48.010;11.326;2023-04-16T04:58:06;5.80;99.90
21298;DHT22;10808;48.010;11.326;2023-04-16T05:00:33;5.80;99.90
21298;DHT22;10808;48.010;11.326;2023-04-16T05:03:02;5.80;99.90
21298;DHT22;10808;48.010;11.326;2023-04-16T05:05:28;5.80;99.90
21298;DHT22;10808;48.010;11.326;2023-04-16T05:07:54;5.80;99.90
21298;DHT22;10808;48.010;11.326;2023-04-16T05:10:20;5.80;99.90
21298;DHT22;10808;48.010;11.326;2023-04-16T05:12:47;5.90;99.90
21298;DHT22;10808;48.010;11.326;2023-04-16T05:15:13;5.90;99.90
21298;DHT22;10808;48.010;11.326;2023-04-16T05:17:39;5.90;99.90
21298;DHT22;10808;48.010;11.326;2023-04-16T05:20:07;5.80;99.90
21298;DHT22;10808;48.010;11.326;2023-04-16T05:22:34;5.80;99.90
21298;DHT22;10808;48.010;11.326;2023-04-16T05:25:00;5.90;99.90
21298;DHT22;10808;48.010;11.326;2023-04-16T05:27:26;5.80;99.90
21298;DHT22;10808;48.010;11.326;2023-04-16T05:29:52;5.80;99.90
21298;DHT22;10808;48.010;11.326;2023-04-16T05:32:18;5.90;99.90
21298;DHT22;10808;48.010;11.326;2023-04-16T05:34:44;5.80;99.90
21298;DHT22;10808;48.010;11.326;2023-04-16T05:37:10;5.80;99.90
21298;DHT22;10808;48.010;11.326;2023-04-16T05:39:36;5.90;99.90
21298;DHT22;10808;48.010;11.326;2023-04-16T05:42:02;5.90;99.90
21298;DHT22;10808;48.010;11.326;2023-04-16T05:44:30;5.90;99.90
21298;DHT22;10808;48.010;11.326;2023-04-16T05:46:56;5.80;99.90
21298;DHT22;10808;48.010;11.326;2023-04-16T05:49:22;5.90;99.90
21298;DHT22;10808;48.010;11.326;2023-04-16T05:51:48;5.90;99.90
21298;DHT22;10808;48.010;11.326;2023-04-16T05:54:14;5.90;99.90
21298;DHT22;10808;48.010;11.326;2023-04-16T05:56:40;6.00;99.90
21298;DHT22;10808;48.010;11.326;2023-04-16T05:59:06;5.90;99.90
21298;DHT22;10808;48.010;11.326;2023-04-16T06:01:32;6.00;99.90
21298;DHT22;10808;48.010;11.326;2023-04-16T06:03:58;5.90;99.90
21298;DHT22;10808;48.010;11.326;2023-04-16T06:06:24;5.90;99.90
21298;DHT22;10808;48.010;11.326;2023-04-16T06:08:52;6.00;99.90
21298;DHT22;10808;48.010;11.326;2023-04-16T06:11:18;6.00;99.90
21298;DHT22;10808;48.010;11.326;2023-04-16T06:13:44;6.00;99.90
21298;DHT22;10808;48.010;11.326;2023-04-16T06:16:10;6.00;99.90
21298;DHT22;10808;48.010;11.326;2023-04-16T06:18:36;6.00;99.90
21298;DHT22;10808;48.010;11.326;2023-04-16T06:21:03;6.00;99.90
21298;DHT22;10808;48.010;11.326;2023-04-16T06:23:29;5.90;99.90
21298;DHT22;10808;48.010;11.326;2023-04-16T06:25:55;6.00;99.90
21298;DHT22;10808;48.010;11.326;2023-04-16T06:28:21;6.00;99.90
21298;DHT22;10808;48.010;11.326;2023-04-16T06:30:47;6.00;99.90
21298;DHT22;10808;48.010;11.326;2023-04-16T06:33:13;6.10;99.90
21298;DHT22;10808;48.010;11.326;2023-04-16T06:35:39;6.20;99.90
21298;DHT22;10808;48.010;11.326;2023-04-16T06:38:05;6.20;99.90
21298;DHT22;10808;48.010;11.326;2023-04-16T06:40:31;6.20;99.90
21298;DHT22;10808;48.010;11.326;2023-04-16T06:42:57;6.30;99.90
21298;DHT22;10808;48.010;11.326;2023-04-16T06:45:23;6.40;99.90
21298;DHT22;10808;48.010;11.326;2023-04-16T06:47:49;6.40;99.90
21298;DHT22;10808;48.010;11.326;2023-04-16T06:50:17;6.30;99.90
21298;DHT22;10808;48.010;11.326;2023-04-16T06:52:43;6.40;99.90
21298;DHT22;10808;48.010;11.326;2023-04-16T06:55:09;6.30;99.90
21298;DHT22;10808;48.010;11.326;2023-04-16T06:57:36;6.30;99.90
21298;DHT22;10808;48.010;11.326;2023-04-16T07:00:02;6.40;99.90
21298;DHT22;10808;48.010;11.326;2023-04-16T07:02:29;6.40;99.90
21298;DHT22;10808;48.010;11.326;2023-04-16T07:04:55;6.50;99.90
21298;DHT22;10808;48.010;11.326;2023-04-16T07:07:21;6.50;99.90
21298;DHT22;10808;48.010;11.326;2023-04-16T07:09:47;6.50;99.90
21298;DHT22;10808;48.010;11.326;2023-04-16T07:12:14;6.50;99.90
21298;DHT22;10808;48.010;11.326;2023-04-16T07:14:40;6.60;99.90
21298;DHT22;10808;48.010;11.326;2023-04-16T07:17:06;6.60;99.90
21298;DHT22;10808;48.010;11.326;2023-04-16T07:19:32;6.60;99.90
21298;DHT22;10808;48.010;11.326;2023-04-16T07:21:59;6.70;99.90
21298;DHT22;10808;48.010;11.326;2023-04-16T07:24:24;6.80;99.90
21298;DHT22;10808;48.010;11.326;2023-04-16T07:26:51;6.80;99.90
21298;DHT22;10808;48.010;11.326;2023-04-16T07:29:17;6.80;99.90
21298;DHT22;10808;48.010;11.326;2023-04-16T07:31:44;6.90;99.90
21298;DHT22;10808;48.010;11.326;2023-04-16T07:34:10;6.90;99.90
21298;DHT22;10808;48.010;11.326;2023-04-16T07:36:36;7.00;99.90
21298;DHT22;10808;48.010;11.326;2023-04-16T07:39:03;7.00;99.90
21298;DHT22;10808;48.010;11.326;2023-04-16T07:41:30;7.00;99.90
21298;DHT22;10808;48.010;11.326;2023-04-16T07:43:56;7.10;99.90
21298;DHT22;10808;48.010;11.326;2023-04-16T07:46:22;7.10;99.90
21298;DHT22;10808;48.010;11.326;2023-04-16T07:48:48;7.20;99.90
21298;DHT22;10808;48.010;11.326;2023-04-16T07:51:15;7.20;99.90
21298;DHT22;10808;48.010;11.326;2023-04-16T07:53:41;7.20;99.90
21298;DHT22;10808;48.010;11.326;2023-04-16T07:56:08;7.30;99.90
21298;DHT22;10808;48.010;11.326;2023-04-16T07:58:34;7.40;99.90
21298;DHT22;10808;48.010;11.326;2023-04-16T08:01:01;7.40;99.90
21298;DHT22;10808;48.010;11.326;2023-04-16T08:03:27;7.50;99.90
21298;DHT22;10808;48.010;11.326;2023-04-16T08:05:53;7.50;99.90
21298;DHT22;10808;48.010;11.326;2023-04-16T08:08:19;7.50;99.90
21298;DHT22;10808;48.010;11.326;2023-04-16T08:10:45;7.50;99.90
21298;DHT22;10808;48.010;11.326;2023-04-16T08:13:11;7.60;99.90
21298;DHT22;10808;48.010;11.326;2023-04-16T08:15:37;7.60;99.90
21298;DHT22;10808;48.010;11.326;2023-04-16T08:18:03;7.70;99.90
21298;DHT22;10808;48.010;11.326;2023-04-16T08:20:30;7.80;99.90
21298;DHT22;10808;48.010;11.326;2023-04-16T08:22:57;7.90;99.90
21298;DHT22;10808;48.010;11.326;2023-04-16T08:25:23;8.00;99.90
21298;DHT22;10808;48.010;11.326;2023-04-16T08:27:49;8.00;99.90
21298;DHT22;10808;48.010;11.326;2023-04-16T08:30:15;8.10;99.90
21298;DHT22;10808;48.010;11.326;2023-04-16T08:32:42;8.20;99.90
21298;DHT22;10808;48.010;11.326;2023-04-16T08:35:09;8.20;99.90
21298;DHT22;10808;48.010;11.326;2023-04-16T08:37:35;8.20;99.90
21298;DHT22;10808;48.010;11.326;2023-04-16T08:40:01;8.20;99.90
21298;DHT22;10808;48.010;11.326;2023-04-16T08:42:31;8.30;99.90
21298;DHT22;10808;48.010;11.326;2023-04-16T08:45:12;8.30;99.90
21298;DHT22;10808;48.010;11.326;2023-04-16T08:47:40;8.50;99.90
21298;DHT22;10808;48.010;11.326;2023-04-16T08:50:08;8.40;99.90
21298;DHT22;10808;48.010;11.326;2023-04-16T08:52:37;8.50;99.90
21298;DHT22;10808;48.010;11.326;2023-04-16T08:55:11;8.50;99.90
21298;DHT22;10808;48.010;11.326;2023-04-16T08:57:53;8.60;99.90
21298;DHT22;10808;48.010;11.326;2023-04-16T09:00:19;8.50;99.90
21298;DHT22;10808;48.010;11.326;2023-04-16T09:02:45;8.50;99.90
21298;DHT22;10808;48.010;11.326;2023-04-16T09:05:14;8.50;99.90
21298;DHT22;10808;48.010;11.326;2023-04-16T09:07:46;8.60;99.90
21298;DHT22;10808;48.010;11.326;2023-04-16T09:10:14;8.50;99.90
21298;DHT22;10808;48.010;11.326;2023-04-16T09:12:41;8.50;99.90
21298;DHT22;10808;48.010;11.326;2023-04-16T09:15:09;8.50;99.90
21298;DHT22;10808;48.010;11.326;2023-04-16T09:17:36;8.60;99.90
21298;DHT22;10808;48.010;11.326;2023-04-16T09:20:06;8.70;99.90
21298;DHT22;10808;48.010;11.326;2023-04-16T09:22:36;8.80;99.90
21298;DHT22;10808;48.010;11.326;2023-04-16T09:25:02;8.80;99.90
21298;DHT22;10808;48.010;11.326;2023-04-16T09:27:29;8.80;99.90
21298;DHT22;10808;48.010;11.326;2023-04-16T09:29:55;8.80;99.90
21298;DHT22;10808;48.010;11.326;2023-04-16T09:32:25;8.70;99.90
21298;DHT22;10808;48.010;11.326;2023-04-16T09:34:55;8.70;99.90
21298;DHT22;10808;48.010;11.326;2023-04-16T09:37:22;8.70;99.90
21298;DHT22;10808;48.010;11.326;2023-04-16T09:40:03;8.70;99.90
21298;DHT22;10808;48.010;11.326;2023-04-16T09:42:31;8.80;99.90
21298;DHT22;10808;48.010;11.326;2023-04-16T09:44:58;8.80;99.90
21298;DHT22;10808;48.010;11.326;2023-04-16T09:47:41;8.90;99.90
21298;DHT22;10808;48.010;11.326;2023-04-16T09:50:09;9.00;99.90
21298;DHT22;10808;48.010;11.326;2023-04-16T09:52:38;9.00;99.90
21298;DHT22;10808;48.010;11.326;2023-04-16T09:55:05;9.10;99.90
21298;DHT22;10808;48.010;11.326;2023-04-16T09:57:31;9.20;99.90
21298;DHT22;10808;48.010;11.326;2023-04-16T10:00:02;9.20;99.90
21298;DHT22;10808;48.010;11.326;2023-04-16T10:02:29;9.20;99.90
21298;DHT22;10808;48.010;11.326;2023-04-16T10:04:56;9.20;99.90
21298;DHT22;10808;48.010;11.326;2023-04-16T10:07:26;9.40;99.90
21298;DHT22;10808;48.010;11.326;2023-04-16T10:09:52;9.40;99.90
21298;DHT22;10808;48.010;11.326;2023-04-16T10:12:19;9.40;99.90
21298;DHT22;10808;48.010;11.326;2023-04-16T10:14:45;9.40;99.90
21298;DHT22;10808;48.010;11.326;2023-04-16T10:17:11;9.50;99.90
21298;DHT22;10808;48.010;11.326;2023-04-16T10:19:38;9.60;99.90
21298;DHT22;10808;48.010;11.326;2023-04-16T10:22:05;9.60;99.90
21298;DHT22;10808;48.010;11.326;2023-04-16T10:24:32;9.60;99.90
21298;DHT22;10808;48.010;11.326;2023-04-16T10:26:59;9.60;99.90
21298;DHT22;10808;48.010;11.326;2023-04-16T10:29:29;9.50;99.90
21298;DHT22;10808;48.010;11.326;2023-04-16T10:31:56;9.60;99.90
21298;DHT22;10808;48.010;11.326;2023-04-16T10:34:24;9.60;99.90
21298;DHT22;10808;48.010;11.326;2023-04-16T10:36:52;9.60;99.90
21298;DHT22;10808;48.010;11.326;2023-04-16T10:39:20;9.60;99.90
21298;DHT22;10808;48.010;11.326;2023-04-16T10:41:46;9.50;99.90
21298;DHT22;10808;48.010;11.326;2023-04-16T10:44:16;9.60;99.90
21298;DHT22;10808;48.010;11.326;2023-04-16T10:46:44;9.80;99.90
21298;DHT22;10808;48.010;11.326;2023-04-16T10:49:23;9.90;99.90
21298;DHT22;10808;48.010;11.326;2023-04-16T10:51:56;10.00;99.90
21298;DHT22;10808;48.010;11.326;2023-04-16T10:54:24;10.10;99.90
21298;DHT22;10808;48.010;11.326;2023-04-16T10:56:52;10.00;99.90
21298;DHT22;10808;48.010;11.326;2023-04-16T10:59:20;10.00;99.90
21298;DHT22;10808;48.010;11.326;2023-04-16T11:01:48;10.00;99.90
21298;DHT22;10808;48.010;11.326;2023-04-16T11:07:04;10.20;99.90
21298;DHT22;10808;48.010;11.326;2023-04-16T11:12:17;10.10;99.90
21298;DHT22;10808;48.010;11.326;2023-04-16T11:14:48;10.10;99.90
21298;DHT22;10808;48.010;11.326;2023-04-16T11:17:15;10.10;99.90
21298;DHT22;10808;48.010;11.326;2023-04-16T11:19:41;10.20;99.90
21298;DHT22;10808;48.010;11.326;2023-04-16T11:22:10;10.20;99.90
21298;DHT22;10808;48.010;11.326;2023-04-16T11:24:36;10.20;99.90
21298;DHT22;10808;48.010;11.326;2023-04-16T11:27:05;10.30;99.90
21298;DHT22;10808;48.010;11.326;2023-04-16T11:29:31;10.30;99.90
21298;DHT22;10808;48.010;11.326;2023-04-16T11:31:57;10.30;99.90
21298;DHT22;10808;48.010;11.326;2023-04-16T11:34:23;10.30;99.90
21298;DHT22;10808;48.010;11.326;2023-04-16T11:36:50;10.40;99.90
21298;DHT22;10808;48.010;11.326;2023-04-16T11:39:18;10.40;99.90
21298;DHT22;10808;48.010;11.326;2023-04-16T11:41:45;10.40;99.90
21298;DHT22;10808;48.010;11.326;2023-04-16T11:44:22;10.40;99.90
21298;DHT22;10808;48.010;11.326;2023-04-16T11:46:50;10.30;99.90
21298;DHT22;10808;48.010;11.326;2023-04-16T11:49:16;10.30;99.90
21298;DHT22;10808;48.010;11.326;2023-04-16T11:51:44;10.30;99.90
21298;DHT22;10808;48.010;11.326;2023-04-16T11:54:20;10.30;99.90
21298;DHT22;10808;48.010;11.326;2023-04-16T11:56:48;10.30;99.90
21298;DHT22;10808;48.010;11.326;2023-04-16T11:59:21;10.40;99.90
21298;DHT22;10808;48.010;11.326;2023-04-16T12:01:52;10.30;99.90
21298;DHT22;10808;48.010;11.326;2023-04-16T12:04:32;10.20;99.90
21298;DHT22;10808;48.010;11.326;2023-04-16T12:07:09;10.20;99.90
21298;DHT22;10808;48.010;11.326;2023-04-16T12:09:37;10.20;99.90
21298;DHT22;10808;48.010;11.326;2023-04-16T12:12:03;10.10;99.90
21298;DHT22;10808;48.010;11.326;2023-04-16T12:14:30;10.10;99.90
21298;DHT22;10808;48.010;11.326;2023-04-16T12:17:18;10.00;99.90
21298;DHT22;10808;48.010;11.326;2023-04-16T12:20:13;9.90;99.90
21298;DHT22;10808;48.010;11.326;2023-04-16T12:22:44;9.80;99.90
21298;DHT22;10808;48.010;11.326;2023-04-16T12:25:19;9.80;99.90
21298;DHT22;10808;48.010;11.326;2023-04-16T12:27:49;9.80;99.90
21298;DHT22;10808;48.010;11.326;2023-04-16T12:30:17;9.80;99.90
21298;DHT22;10808;48.010;11.326;2023-04-16T12:32:45;9.80;99.90
21298;DHT22;10808;48.010;11.326;2023-04-16T12:35:12;9.80;99.90
21298;DHT22;10808;48.010;11.326;2023-04-16T12:37:39;9.70;99.90
21298;DHT22;10808;48.010;11.326;2023-04-16T12:40:05;9.70;99.90
21298;DHT22;10808;48.010;11.326;2023-04-16T12:42:35;9.70;99.90
21298;DHT22;10808;48.010;11.326;2023-04-16T12:45:05;9.70;99.90
21298;DHT22;10808;48.010;11.326;2023-04-16T12:47:31;9.70;99.90
21298;DHT22;10808;48.010;11.326;2023-04-16T12:49:58;9.70;99.90
21298;DHT22;10808;48.010;11.326;2023-04-16T12:52:24;9.70;99.90
21298;DHT22;10808;48.010;11.326;2023-04-16T12:54:50;9.60;99.90
21298;DHT22;10808;48.010;11.326;2023-04-16T12:57:17;9.70;99.90
21298;DHT22;10808;48.010;11.326;2023-04-16T12:59:43;9.70;99.90
21298;DHT22;10808;48.010;11.326;2023-04-16T13:02:11;9.70;99.90
21298;DHT22;10808;48.010;11.326;2023-04-16T13:04:37;9.70;99.90
21298;DHT22;10808;48.010;11.326;2023-04-16T13:07:03;9.70;99.90
21298;DHT22;10808;48.010;11.326;2023-04-16T13:09:29;9.70;99.90
21298;DHT22;10808;48.010;11.326;2023-04-16T13:11:55;9.70;99.90
21298;DHT22;10808;48.010;11.326;2023-04-16T13:14:21;9.60;99.90
21298;DHT22;10808;48.010;11.326;2023-04-16T13:16:47;9.70;99.90
21298;DHT22;10808;48.010;11.326;2023-04-16T13:19:13;9.70;99.90
21298;DHT22;10808;48.010;11.326;2023-04-16T13:21:40;9.80;99.90
21298;DHT22;10808;48.010;11.326;2023-04-16T13:24:06;9.80;99.90
21298;DHT22;10808;48.010;11.326;2023-04-16T13:26:32;9.80;99.90
21298;DHT22;10808;48.010;11.326;2023-04-16T13:28:58;9.70;99.90
21298;DHT22;10808;48.010;11.326;2023-04-16T13:31:24;9.70;99.90
21298;DHT22;10808;48.010;11.326;2023-04-16T13:33:51;9.70;99.90
21298;DHT22;10808;48.010;11.326;2023-04-16T13:36:17;9.70;99.90
21298;DHT22;10808;48.010;11.326;2023-04-16T13:38:43;9.60;99.90
21298;DHT22;10808;48.010;11.326;2023-04-16T13:41:09;9.60;99.90
21298;DHT22;10808;48.010;11.326;2023-04-16T13:43:36;9.60;99.90
21298;DHT22;10808;48.010;11.326;2023-04-16T13:46:02;9.60;99.90
21298;DHT22;10808;48.010;11.326;2023-04-16T13:48:28;9.70;99.90
21298;DHT22;10808;48.010;11.326;2023-04-16T13:50:54;9.70;99.90
21298;DHT22;10808;48.010;11.326;2023-04-16T13:53:20;9.70;99.90
21298;DHT22;10808;48.010;11.326;2023-04-16T13:55:48;9.80;99.90
21298;DHT22;10808;48.010;11.326;2023-04-16T13:58:14;9.80;99.90
21298;DHT22;10808;48.010;11.326;2023-04-16T14:00:49;9.80;99.90
21298;DHT22;10808;48.010;11.326;2023-04-16T14:03:15;9.70;99.90
21298;DHT22;10808;48.010;11.326;2023-04-16T14:05:41;9.70;99.90
21298;DHT22;10808;48.010;11.326;2023-04-16T14:08:07;9.70;99.90
21298;DHT22;10808;48.010;11.326;2023-04-16T14:10:34;9.70;99.90
21298;DHT22;10808;48.010;11.326;2023-04-16T14:13:01;9.70;99.90
21298;DHT22;10808;48.010;11.326;2023-04-16T14:15:27;9.70;99.90
21298;DHT22;10808;48.010;11.326;2023-04-16T14:17:54;9.70;99.90
21298;DHT22;10808;48.010;11.326;2023-04-16T14:20:20;9.70;99.90
21298;DHT22;10808;48.010;11.326;2023-04-16T14:22:46;9.70;99.90
21298;DHT22;10808;48.010;11.326;2023-04-16T14:25:12;9.70;99.90
21298;DHT22;10808;48.010;11.326;2023-04-16T14:27:38;9.80;99.90
21298;DHT22;10808;48.010;11.326;2023-04-16T14:30:06;9.70;99.90
21298;DHT22;10808;48.010;11.326;2023-04-16T14:32:32;9.70;99.90
21298;DHT22;10808;48.010;11.326;2023-04-16T14:34:58;9.80;99.90
21298;DHT22;10808;48.010;11.326;2023-04-16T14:37:24;9.90;99.90
21298;DHT22;10808;48.010;11.326;2023-04-16T14:39:51;9.90;99.90
21298;DHT22;10808;48.010;11.326;2023-04-16T14:42:17;10.00;99.90
21298;DHT22;10808;48.010;11.326;2023-04-16T14:44:43;9.90;99.90
21298;DHT22;10808;48.010;11.326;2023-04-16T14:47:09;9.80;99.90
21298;DHT22;10808;48.010;11.326;2023-04-16T14:49:36;9.80;99.90
21298;DHT22;10808;48.010;11.326;2023-04-16T14:52:02;9.90;99.90
21298;DHT22;10808;48.010;11.326;2023-04-16T14:54:31;9.90;99.90
21298;DHT22;10808;48.010;11.326;2023-04-16T14:56:58;9.90;99.90
21298;DHT22;10808;48.010;11.326;2023-04-16T14:59:24;9.90;99.90
21298;DHT22;10808;48.010;11.326;2023-04-16T15:01:50;9.90;99.90
21298;DHT22;10808;48.010;11.326;2023-04-16T15:04:16;9.90;99.90
21298;DHT22;10808;48.010;11.326;2023-04-16T15:06:42;9.80;99.90
21298;DHT22;10808;48.010;11.326;2023-04-16T15:09:08;9.80;99.90
21298;DHT22;10808;48.010;11.326;2023-04-16T15:11:34;9.80;99.90
21298;DHT22;10808;48.010;11.326;2023-04-16T15:14:00;9.90;99.90
21298;DHT22;10808;48.010;11.326;2023-04-16T15:16:26;9.90;99.90
21298;DHT22;10808;48.010;11.326;2023-04-16T15:18:52;9.80;99.90
21298;DHT22;10808;48.010;11.326;2023-04-16T15:21:18;9.80;99.90
21298;DHT22;10808;48.010;11.326;2023-04-16T15:23:45;9.80;99.90
21298;DHT22;10808;48.010;11.326;2023-04-16T15:26:11;9.70;99.90
21298;DHT22;10808;48.010;11.326;2023-04-16T15:28:37;9.70;99.90
21298;DHT22;10808;48.010;11.326;2023-04-16T15:31:03;9.70;99.90
21298;DHT22;10808;48.010;11.326;2023-04-16T15:33:29;9.70;99.90